sensor_id;sensor_type;location;lat;lon;timestamp;pressure;altitude;pressure_sealevel;temperature;humidity
42587;BME280;28216;53.362;-6.288;2023-06-14T07:19:19;101599.03;;;28.57;42.14
42587;BME280;28216;53.362;-6.288;2023-06-14T07:21:45;101603.47;;;28.78;40.24
42587;BME280;28216;53.362;-6.288;2023-06-14T07:24:13;101599.13;;;29.09;39.33
42587;BME280;28216;53.362;-6.288;2023-06-14T07:26:42;101602.88;;;29.61;37.51
42587;BME280;28216;53.362;-6.288;2023-06-14T07:29:07;101605.88;;;29.12;39.06
42587;BME280;28216;53.362;-6.288;2023-06-14T07:31:33;101611.88;;;29.24;36.70
42587;BME280;28216;53.362;-6.288;2023-06-14T07:33:58;101613.28;;;29.32;34.97
42587;BME280;28216;53.362;-6.288;2023-06-14T07:36:24;101618.44;;;28.91;35.32
42587;BME280;28216;53.362;-6.288;2023-06-14T07:38:49;101614.75;;;29.60;32.60
42587;BME280;28216;53.362;-6.288;2023-06-14T07:41:16;101624.59;;;29.86;33.00
42587;BME280;28216;53.362;-6.288;2023-06-14T07:43:41;101620.19;;;29.70;32.30
42587;BME280;28216;53.362;-6.288;2023-06-14T07:46:09;101622.56;;;28.99;33.33
42587;BME280;28216;53.362;-6.288;2023-06-14T07:48:34;101625.16;;;28.89;35.91
42587;BME280;28216;53.362;-6.288;2023-06-14T07:51:05;101630.00;;;29.86;33.49
42587;BME280;28216;53.362;-6.288;2023-06-14T07:53:30;101624.59;;;29.86;33.42
42587;BME280;28216;53.362;-6.288;2023-06-14T07:55:56;101629.16;;;29.76;33.71
42587;BME280;28216;53.362;-6.288;2023-06-14T07:58:22;101621.88;;;29.91;34.22
42587;BME280;28216;53.362;-6.288;2023-06-14T08:00:47;101631.59;;;29.77;33.21
42587;BME280;28216;53.362;-6.288;2023-06-14T08:03:13;101633.06;;;30.30;31.97
42587;BME280;28216;53.362;-6.288;2023-06-14T08:05:41;101632.22;;;30.04;31.55
42587;BME280;28216;53.362;-6.288;2023-06-14T08:08:06;101640.09;;;30.21;31.31
42587;BME280;28216;53.362;-6.288;2023-06-14T08:10:34;101634.72;;;30.52;29.51
42587;BME280;28216;53.362;-6.288;2023-06-14T08:13:00;101639.81;;;30.43;30.16
42587;BME280;28216;53.362;-6.288;2023-06-14T08:15:28;101648.72;;;30.13;30.38
42587;BME280;28216;53.362;-6.288;2023-06-14T08:17:53;101646.56;;;30.20;30.04
42587;BME280;28216;53.362;-6.288;2023-06-14T08:20:19;101640.94;;;30.47;30.18
42587;BME280;28216;53.362;-6.288;2023-06-14T08:22:44;101640.38;;;30.55;29.98
42587;BME280;28216;53.362;-6.288;2023-06-14T08:25:11;101641.44;;;30.44;29.73
42587;BME280;28216;53.362;-6.288;2023-06-14T08:27:37;101646.88;;;30.95;29.24
42587;BME280;28216;53.362;-6.288;2023-06-14T08:30:03;101647.72;;;30.65;29.12
42587;BME280;28216;53.362;-6.288;2023-06-14T08:32:29;101657.94;;;30.38;29.28
42587;BME280;28216;53.362;-6.288;2023-06-14T08:34:54;101660.91;;;30.26;29.53
42587;BME280;28216;53.362;-6.288;2023-06-14T08:37:23;101670.09;;;30.20;29.45
42587;BME280;28216;53.362;-6.288;2023-06-14T08:39:51;101661.47;;;30.33;28.50
42587;BME280;28216;53.362;-6.288;2023-06-14T08:42:18;101660.88;;;30.06;28.83
42587;BME280;28216;53.362;-6.288;2023-06-14T08:44:44;101668.50;;;30.34;26.78
42587;BME280;28216;53.362;-6.288;2023-06-14T08:47:10;101671.06;;;29.83;27.76
42587;BME280;28216;53.362;-6.288;2023-06-14T08:49:37;101674.72;;;29.52;27.63
42587;BME280;28216;53.362;-6.288;2023-06-14T08:52:05;101686.09;;;29.12;28.52
42587;BME280;28216;53.362;-6.288;2023-06-14T08:54:32;101678.06;;;29.22;28.27
42587;BME280;28216;53.362;-6.288;2023-06-14T08:57:02;101688.63;;;28.91;27.89
42587;BME280;28216;53.362;-6.288;2023-06-14T08:59:32;101692.03;;;28.50;26.18
42587;BME280;28216;53.362;-6.288;2023-06-14T09:02:05;101687.31;;;28.35;25.92
42587;BME280;28216;53.362;-6.288;2023-06-14T09:04:31;101698.16;;;28.40;24.56
42587;BME280;28216;53.362;-6.288;2023-06-14T09:06:58;101696.03;;;27.38;25.83
42587;BME280;28216;53.362;-6.288;2023-06-14T09:09:24;101693.47;;;26.92;27.57
42587;BME280;28216;53.362;-6.288;2023-06-14T09:11:51;101695.97;;;26.66;28.04
42587;BME280;28216;53.362;-6.288;2023-06-14T09:14:18;101685.44;;;26.64;29.96
42587;BME280;28216;53.362;-6.288;2023-06-14T09:16:44;101683.28;;;26.95;29.56
42587;BME280;28216;53.362;-6.288;2023-06-14T09:19:20;101681.63;;;26.94;29.39
42587;BME280;28216;53.362;-6.288;2023-06-14T09:21:48;101691.06;;;26.63;30.58
42587;BME280;28216;53.362;-6.288;2023-06-14T09:24:14;101697.91;;;26.70;30.25
42587;BME280;28216;53.362;-6.288;2023-06-14T09:26:40;101692.16;;;26.78;30.60
42587;BME280;28216;53.362;-6.288;2023-06-14T09:29:06;101690.63;;;26.82;31.40
42587;BME280;28216;53.362;-6.288;2023-06-14T09:31:32;101682.66;;;27.43;31.55
42587;BME280;28216;53.362;-6.288;2023-06-14T09:33:58;101692.94;;;27.63;29.99
42587;BME280;28216;53.362;-6.288;2023-06-14T09:36:27;101685.81;;;27.57;30.00
42587;BME280;28216;53.362;-6.288;2023-06-14T09:39:00;101684.00;;;27.23;31.07
42587;BME280;28216;53.362;-6.288;2023-06-14T09:44:01;101684.47;;;27.37;30.69
42587;BME280;28216;53.362;-6.288;2023-06-14T09:46:28;101692.09;;;27.45;31.53
42587;BME280;28216;53.362;-6.288;2023-06-14T09:48:57;101696.34;;;27.41;33.46
42587;BME280;28216;53.362;-6.288;2023-06-14T09:51:23;101692.28;;;26.26;39.17
42587;BME280;28216;53.362;-6.288;2023-06-14T09:53:55;101692.69;;;26.47;38.12
42587;BME280;28216;53.362;-6.288;2023-06-14T09:56:28;101693.19;;;26.04;39.95
42587;BME280;28216;53.362;-6.288;2023-06-14T09:58:58;101683.94;;;26.40;40.63
42587;BME280;28216;53.362;-6.288;2023-06-14T10:01:25;101697.50;;;26.62;40.60
42587;BME280;28216;53.362;-6.288;2023-06-14T10:04:00;101691.94;;;26.35;39.07
42587;BME280;28216;53.362;-6.288;2023-06-14T10:06:29;101707.38;;;25.76;41.70
42587;BME280;28216;53.362;-6.288;2023-06-14T10:09:00;101701.81;;;25.42;43.31
42587;BME280;28216;53.362;-6.288;2023-06-14T10:11:28;101688.44;;;25.82;43.26
42587;BME280;28216;53.362;-6.288;2023-06-14T10:13:55;101700.56;;;25.96;43.45
42587;BME280;28216;53.362;-6.288;2023-06-14T10:16:25;101703.75;;;25.82;44.37
42587;BME280;28216;53.362;-6.288;2023-06-14T10:24:10;101699.25;;;25.99;44.81
42587;BME280;28216;53.362;-6.288;2023-06-14T10:26:59;101707.69;;;25.91;44.23
42587;BME280;28216;53.362;-6.288;2023-06-14T10:29:27;101711.09;;;25.86;44.30
42587;BME280;28216;53.362;-6.288;2023-06-14T10:31:58;101717.22;;;25.70;45.24
42587;BME280;28216;53.362;-6.288;2023-06-14T10:34:29;101710.09;;;25.29;47.71
42587;BME280;28216;53.362;-6.288;2023-06-14T10:37:05;101711.13;;;25.51;47.41
42587;BME280;28216;53.362;-6.288;2023-06-14T10:39:43;101709.97;;;25.71;45.67
42587;BME280;28216;53.362;-6.288;2023-06-14T10:42:10;101715.69;;;25.39;46.49
42587;BME280;28216;53.362;-6.288;2023-06-14T10:45:06;101698.19;;;25.48;47.69
42587;BME280;28216;53.362;-6.288;2023-06-14T10:47:35;101706.25;;;25.37;46.04
42587;BME280;28216;53.362;-6.288;2023-06-14T10:50:09;101700.75;;;25.31;47.45
42587;BME280;28216;53.362;-6.288;2023-06-14T10:52:42;101710.94;;;24.76;50.54
42587;BME280;28216;53.362;-6.288;2023-06-14T10:57:49;101715.16;;;24.84;49.93
42587;BME280;28216;53.362;-6.288;2023-06-14T11:00:27;101702.72;;;25.01;48.90
42587;BME280;28216;53.362;-6.288;2023-06-14T11:03:28;101703.25;;;24.80;50.79
42587;BME280;28216;53.362;-6.288;2023-06-14T11:05:58;101707.91;;;24.43;51.71
42587;BME280;28216;53.362;-6.288;2023-06-14T11:11:22;101695.06;;;25.28;50.14
42587;BME280;28216;53.362;-6.288;2023-06-14T11:13:51;101702.25;;;25.04;50.64
42587;BME280;28216;53.362;-6.288;2023-06-14T11:16:17;101697.63;;;25.34;49.38
42587;BME280;28216;53.362;-6.288;2023-06-14T11:18:46;101699.00;;;25.25;49.32
42587;BME280;28216;53.362;-6.288;2023-06-14T11:21:16;101695.72;;;25.23;48.80
42587;BME280;28216;53.362;-6.288;2023-06-14T11:23:49;101706.56;;;25.05;50.28
42587;BME280;28216;53.362;-6.288;2023-06-14T11:29:09;101703.06;;;25.05;51.38
42587;BME280;28216;53.362;-6.288;2023-06-14T11:34:58;101709.38;;;25.10;51.64
42587;BME280;28216;53.362;-6.288;2023-06-14T11:37:26;101703.66;;;25.18;50.30
42587;BME280;28216;53.362;-6.288;2023-06-14T11:39:56;101695.78;;;24.93;51.73
42587;BME280;28216;53.362;-6.288;2023-06-14T11:42:43;101697.88;;;24.80;54.61
42587;BME280;28216;53.362;-6.288;2023-06-14T11:45:10;101697.88;;;24.80;54.38
42587;BME280;28216;53.362;-6.288;2023-06-14T11:47:37;101697.06;;;24.79;55.93
42587;BME280;28216;53.362;-6.288;2023-06-14T11:50:04;101703.72;;;24.88;56.44
42587;BME280;28216;53.362;-6.288;2023-06-14T11:52:31;101694.97;;;24.81;56.65
42587;BME280;28216;53.362;-6.288;2023-06-14T11:58:01;101691.53;;;24.62;57.96
42587;BME280;28216;53.362;-6.288;2023-06-14T12:00:28;101694.97;;;24.51;59.38
42587;BME280;28216;53.362;-6.288;2023-06-14T12:02:56;101686.31;;;24.37;60.20
42587;BME280;28216;53.362;-6.288;2023-06-14T12:05:25;101689.34;;;24.11;62.62
42587;BME280;28216;53.362;-6.288;2023-06-14T12:08:01;101678.66;;;23.93;65.04
42587;BME280;28216;53.362;-6.288;2023-06-14T12:10:39;101685.84;;;23.74;67.03
42587;BME280;28216;53.362;-6.288;2023-06-14T12:13:09;101684.75;;;23.82;68.38
42587;BME280;28216;53.362;-6.288;2023-06-14T12:15:35;101690.19;;;23.93;68.93
42587;BME280;28216;53.362;-6.288;2023-06-14T12:18:01;101681.69;;;23.96;67.81
42587;BME280;28216;53.362;-6.288;2023-06-14T12:20:30;101679.38;;;24.00;67.68
42587;BME280;28216;53.362;-6.288;2023-06-14T12:22:58;101699.16;;;24.17;65.18
42587;BME280;28216;53.362;-6.288;2023-06-14T12:25:34;101688.59;;;24.04;67.22
42587;BME280;28216;53.362;-6.288;2023-06-14T12:28:05;101685.56;;;24.00;67.97
42587;BME280;28216;53.362;-6.288;2023-06-14T12:30:32;101681.09;;;23.94;65.59
42587;BME280;28216;53.362;-6.288;2023-06-14T12:32:58;101689.13;;;23.94;67.33
42587;BME280;28216;53.362;-6.288;2023-06-14T12:35:23;101682.47;;;23.85;68.63
42587;BME280;28216;53.362;-6.288;2023-06-14T12:37:49;101683.94;;;23.99;65.78
42587;BME280;28216;53.362;-6.288;2023-06-14T12:40:15;101686.00;;;23.97;66.63
42587;BME280;28216;53.362;-6.288;2023-06-14T12:42:42;101690.31;;;23.98;67.44
42587;BME280;28216;53.362;-6.288;2023-06-14T12:45:08;101688.91;;;23.96;65.40
42587;BME280;28216;53.362;-6.288;2023-06-14T12:47:33;101687.94;;;23.72;67.38
42587;BME280;28216;53.362;-6.288;2023-06-14T12:49:59;101685.50;;;23.89;63.88
42587;BME280;28216;53.362;-6.288;2023-06-14T12:52:27;101680.44;;;23.62;65.41
42587;BME280;28216;53.362;-6.288;2023-06-14T12:54:56;101681.91;;;23.58;67.00
42587;BME280;28216;53.362;-6.288;2023-06-14T12:57:23;101680.28;;;23.57;68.80
42587;BME280;28216;53.362;-6.288;2023-06-14T13:00:13;101687.66;;;23.62;70.03
42587;BME280;28216;53.362;-6.288;2023-06-14T13:03:04;101682.59;;;23.72;65.58
42587;BME280;28216;53.362;-6.288;2023-06-14T13:05:53;101682.00;;;23.70;67.14
42587;BME280;28216;53.362;-6.288;2023-06-14T13:08:36;101687.28;;;23.76;67.02
42587;BME280;28216;53.362;-6.288;2023-06-14T13:11:02;101698.44;;;23.55;69.58
42587;BME280;28216;53.362;-6.288;2023-06-14T13:13:33;101695.31;;;23.58;67.82
42587;BME280;28216;53.362;-6.288;2023-06-14T13:16:19;101685.44;;;23.34;68.92
42587;BME280;28216;53.362;-6.288;2023-06-14T13:19:12;101688.09;;;23.16;70.87
42587;BME280;28216;53.362;-6.288;2023-06-14T13:22:03;101680.69;;;23.54;69.55
42587;BME280;28216;53.362;-6.288;2023-06-14T13:24:46;101681.09;;;23.58;63.71
42587;BME280;28216;53.362;-6.288;2023-06-14T13:31:20;101680.56;;;23.67;64.91
42587;BME280;28216;53.362;-6.288;2023-06-14T13:33:55;101680.00;;;23.84;65.27
42587;BME280;28216;53.362;-6.288;2023-06-14T13:36:31;101680.59;;;23.86;65.16
42587;BME280;28216;53.362;-6.288;2023-06-14T13:42:48;101684.16;;;22.62;72.64
42587;BME280;28216;53.362;-6.288;2023-06-14T13:45:17;101686.28;;;22.78;74.41
42587;BME280;28216;53.362;-6.288;2023-06-14T13:47:43;101678.25;;;22.78;74.32
42587;BME280;28216;53.362;-6.288;2023-06-14T13:50:41;101688.09;;;23.16;73.55
42587;BME280;28216;53.362;-6.288;2023-06-14T13:53:19;101689.16;;;23.33;72.57
42587;BME280;28216;53.362;-6.288;2023-06-14T13:55:48;101688.13;;;23.34;73.08
42587;BME280;28216;53.362;-6.288;2023-06-14T13:58:13;101684.38;;;23.17;73.01
42587;BME280;28216;53.362;-6.288;2023-06-14T14:00:49;101678.06;;;23.29;72.68
42587;BME280;28216;53.362;-6.288;2023-06-14T14:03:15;101675.56;;;23.34;75.29
42587;BME280;28216;53.362;-6.288;2023-06-14T14:05:44;101674.59;;;23.29;75.22
42587;BME280;28216;53.362;-6.288;2023-06-14T14:08:19;101669.38;;;23.16;75.33
42587;BME280;28216;53.362;-6.288;2023-06-14T14:10:47;101662.81;;;23.11;75.44
42587;BME280;28216;53.362;-6.288;2023-06-14T14:13:23;101673.25;;;23.38;75.19
42587;BME280;28216;53.362;-6.288;2023-06-14T14:15:50;101680.16;;;23.27;76.55
42587;BME280;28216;53.362;-6.288;2023-06-14T14:18:16;101668.59;;;23.08;79.58
42587;BME280;28216;53.362;-6.288;2023-06-14T14:20:41;101670.41;;;23.14;79.27
42587;BME280;28216;53.362;-6.288;2023-06-14T14:23:07;101668.63;;;23.27;78.14
42587;BME280;28216;53.362;-6.288;2023-06-14T14:25:32;101671.75;;;23.24;77.87
42587;BME280;28216;53.362;-6.288;2023-06-14T14:27:58;101666.31;;;23.12;77.81
42587;BME280;28216;53.362;-6.288;2023-06-14T14:30:26;101666.53;;;23.10;77.99
42587;BME280;28216;53.362;-6.288;2023-06-14T14:32:53;101660.78;;;22.82;79.91
42587;BME280;28216;53.362;-6.288;2023-06-14T14:35:18;101660.06;;;22.93;78.73
42587;BME280;28216;53.362;-6.288;2023-06-14T14:37:44;101657.09;;;22.76;81.35
42587;BME280;28216;53.362;-6.288;2023-06-14T14:40:11;101657.88;;;22.83;81.49
42587;BME280;28216;53.362;-6.288;2023-06-14T14:42:37;101658.22;;;22.94;79.36
42587;BME280;28216;53.362;-6.288;2023-06-14T14:45:03;101653.69;;;22.94;78.83
42587;BME280;28216;53.362;-6.288;2023-06-14T14:47:28;101658.94;;;22.76;79.21
42587;BME280;28216;53.362;-6.288;2023-06-14T14:49:54;101646.38;;;22.83;79.36
42587;BME280;28216;53.362;-6.288;2023-06-14T14:52:22;101654.88;;;22.98;78.53
42587;BME280;28216;53.362;-6.288;2023-06-14T14:54:47;101651.97;;;23.06;78.95
42587;BME280;28216;53.362;-6.288;2023-06-14T14:57:29;101658.81;;;23.21;76.17
42587;BME280;28216;53.362;-6.288;2023-06-14T14:59:56;101656.22;;;23.32;74.58
42587;BME280;28216;53.362;-6.288;2023-06-14T15:02:22;101652.88;;;22.94;77.23
42587;BME280;28216;53.362;-6.288;2023-06-14T15:04:49;101654.41;;;22.76;79.32
42587;BME280;28216;53.362;-6.288;2023-06-14T15:07:15;101657.41;;;22.93;78.61
42587;BME280;28216;53.362;-6.288;2023-06-14T15:09:40;101654.66;;;23.00;76.41
42587;BME280;28216;53.362;-6.288;2023-06-14T15:12:16;101653.22;;;23.04;74.07
42587;BME280;28216;53.362;-6.288;2023-06-14T15:14:42;101660.00;;;23.00;72.75
42587;BME280;28216;53.362;-6.288;2023-06-14T15:17:07;101656.06;;;23.02;73.40
42587;BME280;28216;53.362;-6.288;2023-06-14T15:19:33;101648.84;;;22.85;77.30
42587;BME280;28216;53.362;-6.288;2023-06-14T15:22:01;101643.22;;;22.93;77.44
42587;BME280;28216;53.362;-6.288;2023-06-14T15:24:28;101641.66;;;23.03;77.16
42587;BME280;28216;53.362;-6.288;2023-06-14T15:26:56;101643.53;;;23.03;78.35
42587;BME280;28216;53.362;-6.288;2023-06-14T15:29:21;101647.63;;;22.80;79.09
42587;BME280;28216;53.362;-6.288;2023-06-14T15:31:46;101639.59;;;22.80;79.00
42587;BME280;28216;53.362;-6.288;2023-06-14T15:34:22;101638.56;;;22.81;80.51
42587;BME280;28216;53.362;-6.288;2023-06-14T15:36:50;101643.13;;;22.49;80.81
42587;BME280;28216;53.362;-6.288;2023-06-14T15:39:18;101640.34;;;22.63;78.50
42587;BME280;28216;53.362;-6.288;2023-06-14T15:41:43;101644.53;;;22.77;76.16
42587;BME280;28216;53.362;-6.288;2023-06-14T15:44:09;101641.16;;;22.63;76.50
42587;BME280;28216;53.362;-6.288;2023-06-14T15:46:35;101642.28;;;22.49;76.92
42587;BME280;28216;53.362;-6.288;2023-06-14T15:49:00;101643.66;;;22.58;76.38
42587;BME280;28216;53.362;-6.288;2023-06-14T15:51:26;101644.75;;;22.50;75.33
42587;BME280;28216;53.362;-6.288;2023-06-14T15:53:51;101638.72;;;22.62;75.66
42587;BME280;28216;53.362;-6.288;2023-06-14T15:56:17;101644.00;;;22.68;75.12
42587;BME280;28216;53.362;-6.288;2023-06-14T15:58:52;101636.97;;;22.74;73.16
42587;BME280;28216;53.362;-6.288;2023-06-14T16:01:32;101638.97;;;22.54;74.92
42587;BME280;28216;53.362;-6.288;2023-06-14T16:04:00;101638.81;;;22.48;76.11
42587;BME280;28216;53.362;-6.288;2023-06-14T16:06:26;101631.16;;;22.52;75.52
42587;BME280;28216;53.362;-6.288;2023-06-14T16:08:52;101638.97;;;22.54;75.25
42587;BME280;28216;53.362;-6.288;2023-06-14T16:11:20;101635.00;;;22.31;77.87
42587;BME280;28216;53.362;-6.288;2023-06-14T16:13:53;101639.84;;;22.47;77.15
42587;BME280;28216;53.362;-6.288;2023-06-14T16:16:23;101632.47;;;22.43;78.40
42587;BME280;28216;53.362;-6.288;2023-06-14T16:18:49;101640.97;;;22.33;79.82
42587;BME280;28216;53.362;-6.288;2023-06-14T16:21:14;101640.97;;;22.33;80.63
42587;BME280;28216;53.362;-6.288;2023-06-14T16:23:41;101652.69;;;22.32;80.20
42587;BME280;28216;53.362;-6.288;2023-06-14T16:26:09;101644.59;;;22.07;76.24
42587;BME280;28216;53.362;-6.288;2023-06-14T16:28:36;101630.06;;;22.28;74.04
42587;BME280;28216;53.362;-6.288;2023-06-14T16:31:02;101641.91;;;22.45;74.45
42587;BME280;28216;53.362;-6.288;2023-06-14T16:33:27;101633.50;;;22.42;72.87
42587;BME280;28216;53.362;-6.288;2023-06-14T16:35:53;101647.03;;;22.47;72.11
42587;BME280;28216;53.362;-6.288;2023-06-14T16:38:18;101640.38;;;22.31;74.08
42587;BME280;28216;53.362;-6.288;2023-06-14T16:43:11;101638.78;;;22.17;74.06
42587;BME280;28216;53.362;-6.288;2023-06-14T16:45:37;101640.06;;;22.08;74.42
42587;BME280;28216;53.362;-6.288;2023-06-14T16:48:02;101629.22;;;21.89;76.96
42587;BME280;28216;53.362;-6.288;2023-06-14T16:50:28;101640.69;;;21.97;77.64
42587;BME280;28216;53.362;-6.288;2023-06-14T16:52:53;101634.94;;;22.00;78.12
42587;BME280;28216;53.362;-6.288;2023-06-14T16:55:19;101632.16;;;21.81;75.61
42587;BME280;28216;53.362;-6.288;2023-06-14T16:57:44;101631.34;;;21.81;77.05
42587;BME280;28216;53.362;-6.288;2023-06-14T17:00:10;101625.38;;;21.79;81.67
42587;BME280;28216;53.362;-6.288;2023-06-14T17:02:36;101624.94;;;21.88;80.63
42587;BME280;28216;53.362;-6.288;2023-06-14T17:05:01;101619.56;;;21.95;80.29
42587;BME280;28216;53.362;-6.288;2023-06-14T17:07:32;101621.38;;;22.01;78.72
42587;BME280;28216;53.362;-6.288;2023-06-14T17:10:00;101627.16;;;21.92;77.49
42587;BME280;28216;53.362;-6.288;2023-06-14T17:12:28;101630.50;;;21.80;78.46
42587;BME280;28216;53.362;-6.288;2023-06-14T17:14:54;101624.56;;;21.78;79.49
42587;BME280;28216;53.362;-6.288;2023-06-14T17:17:28;101627.41;;;21.83;82.21
42587;BME280;28216;53.362;-6.288;2023-06-14T17:19:56;101630.91;;;21.84;79.66
42587;BME280;28216;53.362;-6.288;2023-06-14T17:22:24;101632.84;;;21.64;73.72
42587;BME280;28216;53.362;-6.288;2023-06-14T17:24:49;101627.31;;;21.59;74.56
42587;BME280;28216;53.362;-6.288;2023-06-14T17:27:15;101630.00;;;21.45;69.59
42587;BME280;28216;53.362;-6.288;2023-06-14T17:29:41;101635.97;;;21.41;70.66
42587;BME280;28216;53.362;-6.288;2023-06-14T17:32:07;101634.09;;;21.48;70.46
42587;BME280;28216;53.362;-6.288;2023-06-14T17:34:32;101623.63;;;21.46;70.18
42587;BME280;28216;53.362;-6.288;2023-06-14T17:36:58;101635.34;;;21.45;69.01
42587;BME280;28216;53.362;-6.288;2023-06-14T17:39:23;101635.13;;;21.47;70.58
42587;BME280;28216;53.362;-6.288;2023-06-14T17:41:49;101641.53;;;21.33;70.80
42587;BME280;28216;53.362;-6.288;2023-06-14T17:44:14;101633.13;;;21.29;70.69
42587;BME280;28216;53.362;-6.288;2023-06-14T17:46:40;101640.09;;;21.30;69.60
42587;BME280;28216;53.362;-6.288;2023-06-14T17:49:05;101634.78;;;21.23;68.19
42587;BME280;28216;53.362;-6.288;2023-06-14T17:51:30;101634.34;;;21.20;71.55
42587;BME280;28216;53.362;-6.288;2023-06-14T17:53:56;101634.34;;;21.27;75.01
42587;BME280;28216;53.362;-6.288;2023-06-14T17:56:21;101641.53;;;21.13;76.49
42587;BME280;28216;53.362;-6.288;2023-06-14T17:58:47;101638.88;;;21.13;79.85
42587;BME280;28216;53.362;-6.288;2023-06-14T18:01:12;101629.44;;;21.10;83.26
42587;BME280;28216;53.362;-6.288;2023-06-14T18:03:41;101644.00;;;21.14;82.87
42587;BME280;28216;53.362;-6.288;2023-06-14T18:06:07;101652.81;;;21.02;80.04
42587;BME280;28216;53.362;-6.288;2023-06-14T18:08:35;101637.03;;;21.07;78.22
42587;BME280;28216;53.362;-6.288;2023-06-14T18:11:00;101645.44;;;20.97;77.13
42587;BME280;28216;53.362;-6.288;2023-06-14T18:13:26;101641.75;;;21.05;77.10
42587;BME280;28216;53.362;-6.288;2023-06-14T18:15:51;101644.22;;;21.06;78.61
42587;BME280;28216;53.362;-6.288;2023-06-14T18:18:17;101640.72;;;21.06;79.66
42587;BME280;28216;53.362;-6.288;2023-06-14T18:20:42;101641.75;;;20.91;79.99
42587;BME280;28216;53.362;-6.288;2023-06-14T18:23:07;101641.34;;;20.94;77.72
42587;BME280;28216;53.362;-6.288;2023-06-14T18:25:33;101652.63;;;21.03;77.28
42587;BME280;28216;53.362;-6.288;2023-06-14T18:27:58;101642.97;;;21.02;76.29
42587;BME280;28216;53.362;-6.288;2023-06-14T18:30:25;101645.44;;;21.04;73.41
42587;BME280;28216;53.362;-6.288;2023-06-14T18:32:51;101648.53;;;21.01;70.61
42587;BME280;28216;53.362;-6.288;2023-06-14T18:35:16;101650.38;;;21.00;72.34
42587;BME280;28216;53.362;-6.288;2023-06-14T18:37:42;101649.13;;;21.03;72.74
42587;BME280;28216;53.362;-6.288;2023-06-14T18:40:08;101652.41;;;20.98;76.35
42587;BME280;28216;53.362;-6.288;2023-06-14T18:42:34;101640.94;;;20.98;81.41
42587;BME280;28216;53.362;-6.288;2023-06-14T18:45:00;101647.91;;;20.99;84.75
42587;BME280;28216;53.362;-6.288;2023-06-14T18:47:26;101647.91;;;20.99;86.40
42587;BME280;28216;53.362;-6.288;2023-06-14T18:49:51;101640.31;;;20.96;87.92
42587;BME280;28216;53.362;-6.288;2023-06-14T18:52:17;101650.38;;;20.87;86.36
42587;BME280;28216;53.362;-6.288;2023-06-14T18:54:43;101653.41;;;20.57;78.52
42587;BME280;28216;53.362;-6.288;2023-06-14T18:57:08;101655.47;;;20.62;75.35
42587;BME280;28216;53.362;-6.288;2023-06-14T18:59:34;101651.75;;;20.50;77.70
42587;BME280;28216;53.362;-6.288;2023-06-14T19:01:59;101645.81;;;20.54;87.99
42587;BME280;28216;53.362;-6.288;2023-06-14T19:04:25;101644.59;;;20.63;99.13
42587;BME280;28216;53.362;-6.288;2023-06-14T19:06:51;101658.94;;;20.62;100.00
42587;BME280;28216;53.362;-6.288;2023-06-14T19:09:17;101664.28;;;20.62;100.00
42587;BME280;28216;53.362;-6.288;2023-06-14T19:11:45;101661.41;;;20.64;100.00
42587;BME280;28216;53.362;-6.288;2023-06-14T19:14:15;101665.09;;;20.56;100.00
42587;BME280;28216;53.362;-6.288;2023-06-14T19:16:41;101674.09;;;20.55;100.00
42587;BME280;28216;53.362;-6.288;2023-06-14T19:19:07;101669.19;;;20.52;100.00
42587;BME280;28216;53.362;-6.288;2023-06-14T19:21:32;101672.03;;;20.44;100.00
42587;BME280;28216;53.362;-6.288;2023-06-14T19:23:58;101674.91;;;20.43;100.00
42587;BME280;28216;53.362;-6.288;2023-06-14T19:26:24;101675.69;;;20.37;100.00
42587;BME280;28216;53.362;-6.288;2023-06-14T19:28:51;101674.44;;;20.33;100.00
42587;BME280;28216;53.362;-6.288;2023-06-14T19:31:17;101673.63;;;20.32;100.00
42587;BME280;28216;53.362;-6.288;2023-06-14T19:33:45;101671.34;;;20.29;100.00
42587;BME280;28216;53.362;-6.288;2023-06-14T19:36:11;101668.88;;;20.21;100.00
42587;BME280;28216;53.362;-6.288;2023-06-14T19:38:36;101673.59;;;20.19;100.00
42587;BME280;28216;53.362;-6.288;2023-06-14T19:41:02;101669.47;;;20.16;100.00
42587;BME280;28216;53.362;-6.288;2023-06-14T19:43:27;101677.47;;;20.16;100.00
42587;BME280;28216;53.362;-6.288;2023-06-14T19:45:53;101671.91;;;20.11;100.00
42587;BME280;28216;53.362;-6.288;2023-06-14T19:48:18;101676.81;;;20.08;100.00
42587;BME280;28216;53.362;-6.288;2023-06-14T19:50:44;101674.53;;;20.05;100.00
42587;BME280;28216;53.362;-6.288;2023-06-14T19:53:10;101673.09;;;20.02;100.00
42587;BME280;28216;53.362;-6.288;2023-06-14T19:55:36;101679.81;;;19.98;100.00
42587;BME280;28216;53.362;-6.288;2023-06-14T19:58:01;101679.19;;;19.96;100.00
42587;BME280;28216;53.362;-6.288;2023-06-14T20:00:27;101684.94;;;19.93;100.00
42587;BME280;28216;53.362;-6.288;2023-06-14T20:02:53;101688.19;;;19.88;100.00
42587;BME280;28216;53.362;-6.288;2023-06-14T20:05:19;101684.47;;;19.83;100.00
42587;BME280;28216;53.362;-6.288;2023-06-14T20:07:44;101677.69;;;19.80;100.00
42587;BME280;28216;53.362;-6.288;2023-06-14T20:10:10;101682.00;;;19.81;100.00
42587;BME280;28216;53.362;-6.288;2023-06-14T20:12:38;101684.00;;;19.73;100.00
42587;BME280;28216;53.362;-6.288;2023-06-14T20:15:03;101676.25;;;19.78;100.00
42587;BME280;28216;53.362;-6.288;2023-06-14T20:17:29;101686.91;;;19.78;100.00
42587;BME280;28216;53.362;-6.288;2023-06-14T20:19:55;101677.66;;;19.74;100.00
42587;BME280;28216;53.362;-6.288;2023-06-14T20:22:20;101682.56;;;19.70;100.00
42587;BME280;28216;53.362;-6.288;2023-06-14T20:24:46;101688.09;;;19.68;100.00
42587;BME280;28216;53.362;-6.288;2023-06-14T20:27:11;101682.13;;;19.66;100.00
42587;BME280;28216;53.362;-6.288;2023-06-14T20:29:37;101690.13;;;19.66;100.00
42587;BME280;28216;53.362;-6.288;2023-06-14T20:32:02;101687.25;;;19.68;100.00
42587;BME280;28216;53.362;-6.288;2023-06-14T20:34:29;101690.75;;;19.68;100.00